sensor_id;sensor_type;location;lat;lon;timestamp;temperature;humidity
2751;DHT22;1383;48.362;10.908;2023-12-20T00:17:27;7.50;35.70
2751;DHT22;1383;48.362;10.908;2023-12-20T00:19:53;7.50;35.70
2751;DHT22;1383;48.362;10.908;2023-12-20T00:22:20;7.50;35.00
2751;DHT22;1383;48.362;10.908;2023-12-20T00:24:48;7.60;36.00
2751;DHT22;1383;48.362;10.908;2023-12-20T00:27:14;7.60;34.60
2751;DHT22;1383;48.362;10.908;2023-12-20T00:29:41;7.60;33.40
2751;DHT22;1383;48.362;10.908;2023-12-20T00:32:09;7.60;33.20
2751;DHT22;1383;48.362;10.908;2023-12-20T00:34:36;7.50;33.20
2751;DHT22;1383;48.362;10.908;2023-12-20T00:37:03;7.50;33.10
2751;DHT22;1383;48.362;10.908;2023-12-20T00:39:30;7.50;33.30
2751;DHT22;1383;48.362;10.908;2023-12-20T00:41:57;7.50;33.40
2751;DHT22;1383;48.362;10.908;2023-12-20T00:44:24;7.50;33.50
2751;DHT22;1383;48.362;10.908;2023-12-20T00:46:50;7.40;33.70
2751;DHT22;1383;48.362;10.908;2023-12-20T00:49:17;7.40;33.90
2751;DHT22;1383;48.362;10.908;2023-12-20T00:51:44;7.40;34.10
2751;DHT22;1383;48.362;10.908;2023-12-20T00:54:11;7.40;34.40
2751;DHT22;1383;48.362;10.908;2023-12-20T00:56:39;7.40;34.80
2751;DHT22;1383;48.362;10.908;2023-12-20T00:59:06;7.50;34.90
2751;DHT22;1383;48.362;10.908;2023-12-20T01:01:33;7.40;35.10
2751;DHT22;1383;48.362;10.908;2023-12-20T01:04:00;7.40;35.60
2751;DHT22;1383;48.362;10.908;2023-12-20T01:06:27;7.40;36.00
2751;DHT22;1383;48.362;10.908;2023-12-20T01:08:54;7.40;36.20
2751;DHT22;1383;48.362;10.908;2023-12-20T01:11:20;7.40;36.50
2751;DHT22;1383;48.362;10.908;2023-12-20T01:13:47;7.50;36.80
2751;DHT22;1383;48.362;10.908;2023-12-20T01:16:14;7.40;36.80
2751;DHT22;1383;48.362;10.908;2023-12-20T01:18:41;7.40;37.20
2751;DHT22;1383;48.362;10.908;2023-12-20T01:21:08;7.40;37.50
2751;DHT22;1383;48.362;10.908;2023-12-20T01:23:35;7.40;37.70
2751;DHT22;1383;48.362;10.908;2023-12-20T01:26:02;7.40;37.90
2751;DHT22;1383;48.362;10.908;2023-12-20T01:28:32;7.40;38.30
2751;DHT22;1383;48.362;10.908;2023-12-20T01:30:59;7.40;38.30
2751;DHT22;1383;48.362;10.908;2023-12-20T01:33:26;7.30;38.30
2751;DHT22;1383;48.362;10.908;2023-12-20T01:35:53;7.30;38.30
2751;DHT22;1383;48.362;10.908;2023-12-20T01:38:19;7.30;38.60
2751;DHT22;1383;48.362;10.908;2023-12-20T01:40:46;7.30;38.60
2751;DHT22;1383;48.362;10.908;2023-12-20T01:43:13;7.40;38.60
2751;DHT22;1383;48.362;10.908;2023-12-20T01:45:40;7.40;38.40
2751;DHT22;1383;48.362;10.908;2023-12-20T01:48:08;7.40;38.50
2751;DHT22;1383;48.362;10.908;2023-12-20T01:50:36;7.50;38.40
2751;DHT22;1383;48.362;10.908;2023-12-20T01:53:04;7.50;38.20
2751;DHT22;1383;48.362;10.908;2023-12-20T01:55:35;7.50;38.10
2751;DHT22;1383;48.362;10.908;2023-12-20T01:58:03;7.40;38.00
2751;DHT22;1383;48.362;10.908;2023-12-20T02:00:34;7.30;38.10
2751;DHT22;1383;48.362;10.908;2023-12-20T02:03:01;7.40;38.10
2751;DHT22;1383;48.362;10.908;2023-12-20T02:05:33;7.40;37.90
2751;DHT22;1383;48.362;10.908;2023-12-20T02:08:00;7.40;37.60
2751;DHT22;1383;48.362;10.908;2023-12-20T02:10:27;7.40;37.80
2751;DHT22;1383;48.362;10.908;2023-12-20T02:12:55;7.40;38.10
2751;DHT22;1383;48.362;10.908;2023-12-20T02:15:22;7.30;38.40
2751;DHT22;1383;48.362;10.908;2023-12-20T02:17:49;7.20;39.30
2751;DHT22;1383;48.362;10.908;2023-12-20T02:20:17;7.20;38.90
2751;DHT22;1383;48.362;10.908;2023-12-20T02:22:43;7.20;39.40
2751;DHT22;1383;48.362;10.908;2023-12-20T02:25:10;7.20;39.60
2751;DHT22;1383;48.362;10.908;2023-12-20T02:27:38;7.30;39.90
2751;DHT22;1383;48.362;10.908;2023-12-20T02:30:06;7.30;40.00
2751;DHT22;1383;48.362;10.908;2023-12-20T02:32:33;7.20;40.00
2751;DHT22;1383;48.362;10.908;2023-12-20T02:35:00;7.30;40.20
2751;DHT22;1383;48.362;10.908;2023-12-20T02:37:27;7.30;41.10
2751;DHT22;1383;48.362;10.908;2023-12-20T02:39:54;7.30;40.90
2751;DHT22;1383;48.362;10.908;2023-12-20T02:42:21;7.30;41.40
2751;DHT22;1383;48.362;10.908;2023-12-20T02:44:48;7.20;41.80
2751;DHT22;1383;48.362;10.908;2023-12-20T02:47:14;7.20;42.90
2751;DHT22;1383;48.362;10.908;2023-12-20T02:49:41;7.20;43.20
2751;DHT22;1383;48.362;10.908;2023-12-20T02:52:08;7.20;44.60
2751;DHT22;1383;48.362;10.908;2023-12-20T02:54:35;7.10;44.90
2751;DHT22;1383;48.362;10.908;2023-12-20T02:57:02;7.10;45.20
2751;DHT22;1383;48.362;10.908;2023-12-20T02:59:29;7.00;46.70
2751;DHT22;1383;48.362;10.908;2023-12-20T03:01:57;6.90;48.70
2751;DHT22;1383;48.362;10.908;2023-12-20T03:04:24;6.90;50.40
2751;DHT22;1383;48.362;10.908;2023-12-20T03:06:52;6.90;51.40
2751;DHT22;1383;48.362;10.908;2023-12-20T03:09:18;6.80;53.10
2751;DHT22;1383;48.362;10.908;2023-12-20T03:11:45;6.70;55.30
2751;DHT22;1383;48.362;10.908;2023-12-20T03:14:12;6.50;58.00
2751;DHT22;1383;48.362;10.908;2023-12-20T03:16:39;6.40;59.90
2751;DHT22;1383;48.362;10.908;2023-12-20T03:19:06;6.30;62.40
2751;DHT22;1383;48.362;10.908;2023-12-20T03:21:33;6.30;65.10
2751;DHT22;1383;48.362;10.908;2023-12-20T03:23:59;6.20;66.50
2751;DHT22;1383;48.362;10.908;2023-12-20T03:26:26;6.20;68.60
2751;DHT22;1383;48.362;10.908;2023-12-20T03:28:53;6.20;71.10
2751;DHT22;1383;48.362;10.908;2023-12-20T03:31:20;6.10;71.10
2751;DHT22;1383;48.362;10.908;2023-12-20T03:33:47;6.10;71.40
2751;DHT22;1383;48.362;10.908;2023-12-20T03:36:14;6.10;73.00
2751;DHT22;1383;48.362;10.908;2023-12-20T03:38:41;6.10;73.60
2751;DHT22;1383;48.362;10.908;2023-12-20T03:41:08;6.10;74.50
2751;DHT22;1383;48.362;10.908;2023-12-20T03:43:35;6.10;75.70
2751;DHT22;1383;48.362;10.908;2023-12-20T03:46:03;6.20;77.00
2751;DHT22;1383;48.362;10.908;2023-12-20T03:48:31;6.20;77.80
2751;DHT22;1383;48.362;10.908;2023-12-20T03:50:58;6.20;77.60
2751;DHT22;1383;48.362;10.908;2023-12-20T03:53:25;6.20;78.00
2751;DHT22;1383;48.362;10.908;2023-12-20T03:55:52;6.20;78.70
2751;DHT22;1383;48.362;10.908;2023-12-20T03:58:18;6.20;79.30
2751;DHT22;1383;48.362;10.908;2023-12-20T04:00:45;6.10;80.00
2751;DHT22;1383;48.362;10.908;2023-12-20T04:03:12;6.00;81.10
2751;DHT22;1383;48.362;10.908;2023-12-20T04:05:40;6.00;81.90
2751;DHT22;1383;48.362;10.908;2023-12-20T04:08:07;5.90;83.20
2751;DHT22;1383;48.362;10.908;2023-12-20T04:10:34;5.90;84.40
2751;DHT22;1383;48.362;10.908;2023-12-20T04:13:01;5.90;85.70
2751;DHT22;1383;48.362;10.908;2023-12-20T04:15:28;5.90;86.30
2751;DHT22;1383;48.362;10.908;2023-12-20T04:17:55;5.80;87.40
2751;DHT22;1383;48.362;10.908;2023-12-20T04:20:22;5.80;88.20
2751;DHT22;1383;48.362;10.908;2023-12-20T04:22:49;5.80;88.30
2751;DHT22;1383;48.362;10.908;2023-12-20T04:25:16;5.80;89.50
2751;DHT22;1383;48.362;10.908;2023-12-20T04:27:43;5.80;90.00
2751;DHT22;1383;48.362;10.908;2023-12-20T04:30:10;5.80;90.30
2751;DHT22;1383;48.362;10.908;2023-12-20T04:32:37;5.80;90.30
2751;DHT22;1383;48.362;10.908;2023-12-20T04:35:04;5.80;90.50
2751;DHT22;1383;48.362;10.908;2023-12-20T04:37:31;5.80;90.70
2751;DHT22;1383;48.362;10.908;2023-12-20T04:39:58;5.80;90.60
2751;DHT22;1383;48.362;10.908;2023-12-20T04:42:25;5.80;90.90
2751;DHT22;1383;48.362;10.908;2023-12-20T04:44:51;5.80;91.40
2751;DHT22;1383;48.362;10.908;2023-12-20T04:47:18;5.80;91.10
2751;DHT22;1383;48.362;10.908;2023-12-20T04:49:45;5.80;91.10
2751;DHT22;1383;48.362;10.908;2023-12-20T04:52:12;5.80;91.40
2751;DHT22;1383;48.362;10.908;2023-12-20T04:54:39;5.80;91.60
2751;DHT22;1383;48.362;10.908;2023-12-20T04:57:10;5.80;91.80
2751;DHT22;1383;48.362;10.908;2023-12-20T04:59:37;5.80;91.90
2751;DHT22;1383;48.362;10.908;2023-12-20T05:02:04;5.70;91.80
2751;DHT22;1383;48.362;10.908;2023-12-20T05:04:31;5.70;92.10
2751;DHT22;1383;48.362;10.908;2023-12-20T05:06:58;5.80;92.30
2751;DHT22;1383;48.362;10.908;2023-12-20T05:09:24;5.70;92.30
2751;DHT22;1383;48.362;10.908;2023-12-20T05:11:51;5.70;92.50
2751;DHT22;1383;48.362;10.908;2023-12-20T05:14:18;5.70;92.70
2751;DHT22;1383;48.362;10.908;2023-12-20T05:16:45;5.70;92.80
2751;DHT22;1383;48.362;10.908;2023-12-20T05:19:12;5.70;92.80
2751;DHT22;1383;48.362;10.908;2023-12-20T05:21:39;5.80;92.90
2751;DHT22;1383;48.362;10.908;2023-12-20T05:24:06;5.80;92.80
2751;DHT22;1383;48.362;10.908;2023-12-20T05:26:33;5.80;92.40
2751;DHT22;1383;48.362;10.908;2023-12-20T05:29:00;5.70;92.30
2751;DHT22;1383;48.362;10.908;2023-12-20T05:31:26;5.70;92.30
2751;DHT22;1383;48.362;10.908;2023-12-20T05:33:53;5.70;92.40
2751;DHT22;1383;48.362;10.908;2023-12-20T05:36:20;5.70;92.60
2751;DHT22;1383;48.362;10.908;2023-12-20T05:38:47;5.70;92.50
2751;DHT22;1383;48.362;10.908;2023-12-20T05:41:14;5.60;92.30
2751;DHT22;1383;48.362;10.908;2023-12-20T05:43:41;5.60;92.30
2751;DHT22;1383;48.362;10.908;2023-12-20T05:46:10;5.60;92.40
2751;DHT22;1383;48.362;10.908;2023-12-20T05:48:38;5.60;92.40
2751;DHT22;1383;48.362;10.908;2023-12-20T05:51:05;5.60;92.40
2751;DHT22;1383;48.362;10.908;2023-12-20T05:53:32;5.60;92.50
2751;DHT22;1383;48.362;10.908;2023-12-20T05:55:58;5.50;92.40
2751;DHT22;1383;48.362;10.908;2023-12-20T05:58:26;5.50;92.40
2751;DHT22;1383;48.362;10.908;2023-12-20T06:00:53;5.50;92.40
2751;DHT22;1383;48.362;10.908;2023-12-20T06:03:20;5.50;92.30
2751;DHT22;1383;48.362;10.908;2023-12-20T06:05:47;5.50;91.90
2751;DHT22;1383;48.362;10.908;2023-12-20T06:08:14;5.40;92.00
2751;DHT22;1383;48.362;10.908;2023-12-20T06:10:41;5.40;91.90
2751;DHT22;1383;48.362;10.908;2023-12-20T06:13:08;5.40;92.00
2751;DHT22;1383;48.362;10.908;2023-12-20T06:15:35;5.40;92.10
2751;DHT22;1383;48.362;10.908;2023-12-20T06:18:02;5.50;92.10
2751;DHT22;1383;48.362;10.908;2023-12-20T06:20:30;5.40;92.10
2751;DHT22;1383;48.362;10.908;2023-12-20T06:22:57;5.40;92.10
2751;DHT22;1383;48.362;10.908;2023-12-20T06:25:23;5.30;92.10
2751;DHT22;1383;48.362;10.908;2023-12-20T06:27:50;5.30;92.30
2751;DHT22;1383;48.362;10.908;2023-12-20T06:30:17;5.30;92.40
2751;DHT22;1383;48.362;10.908;2023-12-20T06:32:44;5.30;92.40
2751;DHT22;1383;48.362;10.908;2023-12-20T06:35:13;5.30;92.50
2751;DHT22;1383;48.362;10.908;2023-12-20T06:37:40;5.30;92.70
2751;DHT22;1383;48.362;10.908;2023-12-20T06:40:10;5.30;93.00
2751;DHT22;1383;48.362;10.908;2023-12-20T06:42:44;5.30;92.70
2751;DHT22;1383;48.362;10.908;2023-12-20T06:45:24;5.20;92.50
2751;DHT22;1383;48.362;10.908;2023-12-20T06:47:51;5.20;92.60
2751;DHT22;1383;48.362;10.908;2023-12-20T06:50:18;5.20;92.60
2751;DHT22;1383;48.362;10.908;2023-12-20T06:52:45;5.20;92.90
2751;DHT22;1383;48.362;10.908;2023-12-20T06:55:12;5.20;92.60
2751;DHT22;1383;48.362;10.908;2023-12-20T06:57:39;5.30;92.50
2751;DHT22;1383;48.362;10.908;2023-12-20T07:00:06;5.30;92.40
2751;DHT22;1383;48.362;10.908;2023-12-20T07:02:33;5.30;92.40
2751;DHT22;1383;48.362;10.908;2023-12-20T07:05:01;5.30;92.30
2751;DHT22;1383;48.362;10.908;2023-12-20T07:07:27;5.20;92.20
2751;DHT22;1383;48.362;10.908;2023-12-20T07:09:54;5.20;92.20
2751;DHT22;1383;48.362;10.908;2023-12-20T07:12:21;5.20;92.20
2751;DHT22;1383;48.362;10.908;2023-12-20T07:14:48;5.20;92.40
2751;DHT22;1383;48.362;10.908;2023-12-20T07:17:17;5.20;92.50
2751;DHT22;1383;48.362;10.908;2023-12-20T07:19:43;5.30;92.70
2751;DHT22;1383;48.362;10.908;2023-12-20T07:22:10;5.30;93.00
2751;DHT22;1383;48.362;10.908;2023-12-20T07:24:37;5.30;92.60
2751;DHT22;1383;48.362;10.908;2023-12-20T07:27:04;5.30;92.40
2751;DHT22;1383;48.362;10.908;2023-12-20T07:29:31;5.30;92.50
2751;DHT22;1383;48.362;10.908;2023-12-20T07:31:58;5.30;92.20
2751;DHT22;1383;48.362;10.908;2023-12-20T07:34:25;5.30;92.40
2751;DHT22;1383;48.362;10.908;2023-12-20T07:36:52;5.30;92.50
2751;DHT22;1383;48.362;10.908;2023-12-20T07:39:19;5.30;92.50
2751;DHT22;1383;48.362;10.908;2023-12-20T07:41:46;5.40;92.80
2751;DHT22;1383;48.362;10.908;2023-12-20T07:44:12;5.40;92.70
2751;DHT22;1383;48.362;10.908;2023-12-20T07:46:39;5.30;92.60
2751;DHT22;1383;48.362;10.908;2023-12-20T07:49:06;5.30;92.70
2751;DHT22;1383;48.362;10.908;2023-12-20T07:51:35;5.40;92.80
2751;DHT22;1383;48.362;10.908;2023-12-20T07:54:02;5.40;92.90
2751;DHT22;1383;48.362;10.908;2023-12-20T07:56:30;5.30;92.80
2751;DHT22;1383;48.362;10.908;2023-12-20T07:58:56;5.40;93.20
2751;DHT22;1383;48.362;10.908;2023-12-20T08:01:26;5.40;93.00
2751;DHT22;1383;48.362;10.908;2023-12-20T08:03:53;5.40;93.20
2751;DHT22;1383;48.362;10.908;2023-12-20T08:06:21;5.40;93.50
2751;DHT22;1383;48.362;10.908;2023-12-20T08:08:48;5.40;93.60
2751;DHT22;1383;48.362;10.908;2023-12-20T08:11:27;5.40;93.70
2751;DHT22;1383;48.362;10.908;2023-12-20T08:13:54;5.50;93.80
2751;DHT22;1383;48.362;10.908;2023-12-20T08:16:21;5.50;93.70
2751;DHT22;1383;48.362;10.908;2023-12-20T08:18:48;5.50;93.50
2751;DHT22;1383;48.362;10.908;2023-12-20T08:21:15;5.50;93.50
2751;DHT22;1383;48.362;10.908;2023-12-20T08:23:41;5.40;93.50
2751;DHT22;1383;48.362;10.908;2023-12-20T08:26:08;5.40;93.70
2751;DHT22;1383;48.362;10.908;2023-12-20T08:28:36;5.50;93.70
2751;DHT22;1383;48.362;10.908;2023-12-20T08:31:04;5.50;93.70
2751;DHT22;1383;48.362;10.908;2023-12-20T08:33:31;5.50;93.60
2751;DHT22;1383;48.362;10.908;2023-12-20T08:35:58;5.50;93.60
2751;DHT22;1383;48.362;10.908;2023-12-20T08:38:25;5.60;93.60
2751;DHT22;1383;48.362;10.908;2023-12-20T08:40:51;5.50;93.40
2751;DHT22;1383;48.362;10.908;2023-12-20T08:43:18;5.60;93.20
2751;DHT22;1383;48.362;10.908;2023-12-20T08:45:46;5.50;93.20
2751;DHT22;1383;48.362;10.908;2023-12-20T08:48:13;5.60;93.40
2751;DHT22;1383;48.362;10.908;2023-12-20T08:50:40;5.60;93.20
2751;DHT22;1383;48.362;10.908;2023-12-20T08:53:07;5.70;93.30
2751;DHT22;1383;48.362;10.908;2023-12-20T08:55:34;5.70;93.20
2751;DHT22;1383;48.362;10.908;2023-12-20T08:58:00;5.70;93.10
2751;DHT22;1383;48.362;10.908;2023-12-20T09:00:27;5.80;93.00
2751;DHT22;1383;48.362;10.908;2023-12-20T09:02:54;5.80;92.90
2751;DHT22;1383;48.362;10.908;2023-12-20T09:05:21;5.80;92.50
2751;DHT22;1383;48.362;10.908;2023-12-20T09:07:49;5.90;92.50
2751;DHT22;1383;48.362;10.908;2023-12-20T09:10:16;6.00;92.50
2751;DHT22;1383;48.362;10.908;2023-12-20T09:12:50;6.10;91.90
2751;DHT22;1383;48.362;10.908;2023-12-20T09:15:17;6.10;91.50
2751;DHT22;1383;48.362;10.908;2023-12-20T09:17:44;6.20;91.00
2751;DHT22;1383;48.362;10.908;2023-12-20T09:20:11;6.20;90.90
2751;DHT22;1383;48.362;10.908;2023-12-20T09:22:40;6.30;90.50
2751;DHT22;1383;48.362;10.908;2023-12-20T09:25:09;6.40;90.30
2751;DHT22;1383;48.362;10.908;2023-12-20T09:27:37;6.40;89.40
2751;DHT22;1383;48.362;10.908;2023-12-20T09:30:04;6.40;88.80
2751;DHT22;1383;48.362;10.908;2023-12-20T09:32:32;6.40;88.60
2751;DHT22;1383;48.362;10.908;2023-12-20T09:34:59;6.40;88.00
2751;DHT22;1383;48.362;10.908;2023-12-20T09:37:27;6.40;88.00
2751;DHT22;1383;48.362;10.908;2023-12-20T09:39:55;6.50;89.60
2751;DHT22;1383;48.362;10.908;2023-12-20T09:42:29;6.50;88.20
2751;DHT22;1383;48.362;10.908;2023-12-20T09:45:02;6.50;88.90
2751;DHT22;1383;48.362;10.908;2023-12-20T09:47:29;6.50;88.20
2751;DHT22;1383;48.362;10.908;2023-12-20T09:49:57;6.60;88.50
2751;DHT22;1383;48.362;10.908;2023-12-20T09:52:24;6.60;87.90
2751;DHT22;1383;48.362;10.908;2023-12-20T09:54:52;6.60;88.00
2751;DHT22;1383;48.362;10.908;2023-12-20T09:57:19;6.70;87.70
2751;DHT22;1383;48.362;10.908;2023-12-20T09:59:46;6.80;87.70
2751;DHT22;1383;48.362;10.908;2023-12-20T10:02:13;6.90;86.70
2751;DHT22;1383;48.362;10.908;2023-12-20T10:04:47;7.00;86.00
2751;DHT22;1383;48.362;10.908;2023-12-20T10:07:15;7.00;85.10
2751;DHT22;1383;48.362;10.908;2023-12-20T10:09:42;7.10;83.20
2751;DHT22;1383;48.362;10.908;2023-12-20T10:12:10;7.00;81.10
2751;DHT22;1383;48.362;10.908;2023-12-20T10:14:39;7.00;80.20
2751;DHT22;1383;48.362;10.908;2023-12-20T10:17:06;7.00;80.20
2751;DHT22;1383;48.362;10.908;2023-12-20T10:19:33;7.00;80.50
2751;DHT22;1383;48.362;10.908;2023-12-20T10:22:00;6.90;80.90
2751;DHT22;1383;48.362;10.908;2023-12-20T10:24:30;7.00;81.00
2751;DHT22;1383;48.362;10.908;2023-12-20T10:27:07;6.90;80.90
2751;DHT22;1383;48.362;10.908;2023-12-20T10:29:35;7.00;81.90
2751;DHT22;1383;48.362;10.908;2023-12-20T10:32:25;7.10;82.00
2751;DHT22;1383;48.362;10.908;2023-12-20T10:34:53;7.10;80.90
2751;DHT22;1383;48.362;10.908;2023-12-20T10:37:24;7.10;81.10
2751;DHT22;1383;48.362;10.908;2023-12-20T10:39:55;7.10;80.40
2751;DHT22;1383;48.362;10.908;2023-12-20T10:42:26;7.20;80.00
2751;DHT22;1383;48.362;10.908;2023-12-20T10:54:44;7.30;77.00
2751;DHT22;1383;48.362;10.908;2023-12-20T10:57:11;7.40;78.20
2751;DHT22;1383;48.362;10.908;2023-12-20T10:59:39;7.40;77.10
2751;DHT22;1383;48.362;10.908;2023-12-20T11:02:07;7.50;76.20
2751;DHT22;1383;48.362;10.908;2023-12-20T11:04:50;7.50;76.00
2751;DHT22;1383;48.362;10.908;2023-12-20T11:10:13;7.40;74.80
2751;DHT22;1383;48.362;10.908;2023-12-20T11:12:57;7.30;74.60
2751;DHT22;1383;48.362;10.908;2023-12-20T11:15:26;7.20;75.00
2751;DHT22;1383;48.362;10.908;2023-12-20T11:17:58;7.00;73.40
2751;DHT22;1383;48.362;10.908;2023-12-20T11:20:39;7.00;72.60
2751;DHT22;1383;48.362;10.908;2023-12-20T11:23:08;6.90;72.10
2751;DHT22;1383;48.362;10.908;2023-12-20T11:25:54;6.70;72.10
2751;DHT22;1383;48.362;10.908;2023-12-20T11:28:24;6.70;72.20
2751;DHT22;1383;48.362;10.908;2023-12-20T11:30:56;6.60;72.40
2751;DHT22;1383;48.362;10.908;2023-12-20T11:33:45;6.60;73.20
2751;DHT22;1383;48.362;10.908;2023-12-20T11:36:18;6.60;72.60
2751;DHT22;1383;48.362;10.908;2023-12-20T11:38:55;6.60;72.60
2751;DHT22;1383;48.362;10.908;2023-12-20T11:41:23;6.60;72.20
2751;DHT22;1383;48.362;10.908;2023-12-20T11:43:53;6.50;71.90
2751;DHT22;1383;48.362;10.908;2023-12-20T11:46:21;6.60;72.50
2751;DHT22;1383;48.362;10.908;2023-12-20T11:48:49;6.60;71.90
2751;DHT22;1383;48.362;10.908;2023-12-20T11:51:16;6.60;71.90
2751;DHT22;1383;48.362;10.908;2023-12-20T11:53:43;6.60;71.10
2751;DHT22;1383;48.362;10.908;2023-12-20T11:56:10;6.60;70.90
2751;DHT22;1383;48.362;10.908;2023-12-20T11:58:37;6.50;70.10
2751;DHT22;1383;48.362;10.908;2023-12-20T12:01:05;6.50;70.30
2751;DHT22;1383;48.362;10.908;2023-12-20T12:03:35;6.50;69.30
2751;DHT22;1383;48.362;10.908;2023-12-20T12:06:02;6.50;67.80
2751;DHT22;1383;48.362;10.908;2023-12-20T12:08:32;6.40;66.50
2751;DHT22;1383;48.362;10.908;2023-12-20T12:10:59;6.40;66.00
2751;DHT22;1383;48.362;10.908;2023-12-20T12:13:26;6.40;66.10
2751;DHT22;1383;48.362;10.908;2023-12-20T12:15:56;6.40;66.30
2751;DHT22;1383;48.362;10.908;2023-12-20T12:18:23;6.40;66.10
2751;DHT22;1383;48.362;10.908;2023-12-20T12:20:50;6.50;65.90
2751;DHT22;1383;48.362;10.908;2023-12-20T12:23:23;6.50;65.50
2751;DHT22;1383;48.362;10.908;2023-12-20T12:25:51;6.40;65.20
2751;DHT22;1383;48.362;10.908;2023-12-20T12:28:18;6.50;65.20
2751;DHT22;1383;48.362;10.908;2023-12-20T12:30:57;6.40;65.00
2751;DHT22;1383;48.362;10.908;2023-12-20T12:33:25;6.40;65.10
2751;DHT22;1383;48.362;10.908;2023-12-20T12:35:53;6.40;65.30
2751;DHT22;1383;48.362;10.908;2023-12-20T12:38:20;6.50;65.90
2751;DHT22;1383;48.362;10.908;2023-12-20T12:40:48;6.50;65.50
2751;DHT22;1383;48.362;10.908;2023-12-20T12:43:16;6.50;64.60
2751;DHT22;1383;48.362;10.908;2023-12-20T12:45:43;6.60;65.10
2751;DHT22;1383;48.362;10.908;2023-12-20T12:48:11;6.60;64.50
2751;DHT22;1383;48.362;10.908;2023-12-20T12:50:38;6.70;64.40
2751;DHT22;1383;48.362;10.908;2023-12-20T12:53:06;6.70;64.30
2751;DHT22;1383;48.362;10.908;2023-12-20T12:55:35;6.80;63.10
2751;DHT22;1383;48.362;10.908;2023-12-20T12:58:04;6.80;61.80
2751;DHT22;1383;48.362;10.908;2023-12-20T13:00:31;6.80;60.20
2751;DHT22;1383;48.362;10.908;2023-12-20T13:02:58;6.80;59.50
2751;DHT22;1383;48.362;10.908;2023-12-20T13:05:25;6.80;58.90
2751;DHT22;1383;48.362;10.908;2023-12-20T13:08:02;6.80;59.00
2751;DHT22;1383;48.362;10.908;2023-12-20T13:10:36;6.80;58.30
2751;DHT22;1383;48.362;10.908;2023-12-20T13:13:05;6.90;58.80
2751;DHT22;1383;48.362;10.908;2023-12-20T13:15:34;6.90;57.50
2751;DHT22;1383;48.362;10.908;2023-12-20T13:18:01;6.90;56.50
2751;DHT22;1383;48.362;10.908;2023-12-20T13:20:28;6.80;55.30
2751;DHT22;1383;48.362;10.908;2023-12-20T13:22:55;6.70;55.50
2751;DHT22;1383;48.362;10.908;2023-12-20T13:25:22;6.70;55.60
2751;DHT22;1383;48.362;10.908;2023-12-20T13:27:53;6.70;55.40
2751;DHT22;1383;48.362;10.908;2023-12-20T13:30:20;6.60;55.10
2751;DHT22;1383;48.362;10.908;2023-12-20T13:32:47;6.60;55.50
2751;DHT22;1383;48.362;10.908;2023-12-20T13:35:14;6.60;54.70
2751;DHT22;1383;48.362;10.908;2023-12-20T13:37:44;6.60;55.20
2751;DHT22;1383;48.362;10.908;2023-12-20T13:40:13;6.60;55.60
2751;DHT22;1383;48.362;10.908;2023-12-20T13:42:56;6.60;55.20
2751;DHT22;1383;48.362;10.908;2023-12-20T13:45:23;6.60;55.30
2751;DHT22;1383;48.362;10.908;2023-12-20T13:47:51;6.60;55.80
2751;DHT22;1383;48.362;10.908;2023-12-20T13:50:19;6.50;54.80
2751;DHT22;1383;48.362;10.908;2023-12-20T13:52:46;6.50;55.50
2751;DHT22;1383;48.362;10.908;2023-12-20T13:55:13;6.40;55.40
2751;DHT22;1383;48.362;10.908;2023-12-20T13:57:40;6.30;55.80
2751;DHT22;1383;48.362;10.908;2023-12-20T14:00:21;6.30;55.90
2751;DHT22;1383;48.362;10.908;2023-12-20T14:02:49;6.30;56.20
2751;DHT22;1383;48.362;10.908;2023-12-20T14:05:17;6.30;56.10
2751;DHT22;1383;48.362;10.908;2023-12-20T14:07:45;6.40;56.00
2751;DHT22;1383;48.362;10.908;2023-12-20T14:10:14;6.40;56.00
2751;DHT22;1383;48.362;10.908;2023-12-20T14:12:41;6.40;55.60
2751;DHT22;1383;48.362;10.908;2023-12-20T14:15:09;6.40;55.30
2751;DHT22;1383;48.362;10.908;2023-12-20T14:17:38;6.40;55.10
2751;DHT22;1383;48.362;10.908;2023-12-20T14:20:06;6.40;55.50
2751;DHT22;1383;48.362;10.908;2023-12-20T14:22:34;6.40;55.30
2751;DHT22;1383;48.362;10.908;2023-12-20T14:25:02;6.30;55.10
2751;DHT22;1383;48.362;10.908;2023-12-20T14:27:29;6.30;56.00
2751;DHT22;1383;48.362;10.908;2023-12-20T14:29:56;6.30;55.80
2751;DHT22;1383;48.362;10.908;2023-12-20T14:32:24;6.30;55.60
2751;DHT22;1383;48.362;10.908;2023-12-20T14:34:53;6.30;55.50
2751;DHT22;1383;48.362;10.908;2023-12-20T14:37:21;6.30;54.90
2751;DHT22;1383;48.362;10.908;2023-12-20T14:39:49;6.40;55.00
2751;DHT22;1383;48.362;10.908;2023-12-20T14:42:16;6.40;54.80
2751;DHT22;1383;48.362;10.908;2023-12-20T14:44:43;6.40;54.80
2751;DHT22;1383;48.362;10.908;2023-12-20T14:47:10;6.30;54.80
2751;DHT22;1383;48.362;10.908;2023-12-20T14:49:37;6.30;53.50
2751;DHT22;1383;48.362;10.908;2023-12-20T14:52:05;6.10;53.30
2751;DHT22;1383;48.362;10.908;2023-12-20T14:54:32;6.00;52.80
2751;DHT22;1383;48.362;10.908;2023-12-20T14:57:02;5.90;52.50
2751;DHT22;1383;48.362;10.908;2023-12-20T14:59:31;5.90;53.10
2751;DHT22;1383;48.362;10.908;2023-12-20T15:02:00;5.90;53.20
2751;DHT22;1383;48.362;10.908;2023-12-20T15:04:27;5.90;52.70
2751;DHT22;1383;48.362;10.908;2023-12-20T15:06:56;5.90;52.30
2751;DHT22;1383;48.362;10.908;2023-12-20T15:09:23;5.90;51.70
2751;DHT22;1383;48.362;10.908;2023-12-20T15:11:50;5.80;51.20
2751;DHT22;1383;48.362;10.908;2023-12-20T15:14:17;5.80;51.30
2751;DHT22;1383;48.362;10.908;2023-12-20T15:16:46;5.80;51.20
2751;DHT22;1383;48.362;10.908;2023-12-20T15:19:14;5.80;51.80
2751;DHT22;1383;48.362;10.908;2023-12-20T15:21:43;5.80;52.20
2751;DHT22;1383;48.362;10.908;2023-12-20T15:24:13;5.80;51.70
2751;DHT22;1383;48.362;10.908;2023-12-20T15:26:46;5.80;52.10
2751;DHT22;1383;48.362;10.908;2023-12-20T15:29:14;5.80;51.70
2751;DHT22;1383;48.362;10.908;2023-12-20T15:31:43;5.70;52.20
2751;DHT22;1383;48.362;10.908;2023-12-20T15:34:10;5.70;52.70
2751;DHT22;1383;48.362;10.908;2023-12-20T15:36:38;5.70;52.90
2751;DHT22;1383;48.362;10.908;2023-12-20T15:39:06;5.50;51.40
2751;DHT22;1383;48.362;10.908;2023-12-20T15:41:36;5.40;51.30
2751;DHT22;1383;48.362;10.908;2023-12-20T15:44:03;5.40;51.40
2751;DHT22;1383;48.362;10.908;2023-12-20T15:46:30;5.40;51.30
2751;DHT22;1383;48.362;10.908;2023-12-20T15:48:57;5.30;50.70
2751;DHT22;1383;48.362;10.908;2023-12-20T15:51:24;5.30;50.20
2751;DHT22;1383;48.362;10.908;2023-12-20T15:53:51;5.30;50.10
2751;DHT22;1383;48.362;10.908;2023-12-20T15:56:18;5.20;50.20
2751;DHT22;1383;48.362;10.908;2023-12-20T15:58:46;5.20;49.50
2751;DHT22;1383;48.362;10.908;2023-12-20T16:01:15;5.20;49.70
2751;DHT22;1383;48.362;10.908;2023-12-20T16:03:42;5.20;49.20
2751;DHT22;1383;48.362;10.908;2023-12-20T16:06:19;5.10;48.90
2751;DHT22;1383;48.362;10.908;2023-12-20T16:08:48;5.10;49.50
2751;DHT22;1383;48.362;10.908;2023-12-20T16:11:15;5.20;50.50
2751;DHT22;1383;48.362;10.908;2023-12-20T16:13:42;5.20;50.70
2751;DHT22;1383;48.362;10.908;2023-12-20T16:16:10;5.20;50.90
2751;DHT22;1383;48.362;10.908;2023-12-20T16:18:36;5.30;51.40
2751;DHT22;1383;48.362;10.908;2023-12-20T16:21:04;5.30;51.30
2751;DHT22;1383;48.362;10.908;2023-12-20T16:23:31;5.20;51.10
2751;DHT22;1383;48.362;10.908;2023-12-20T16:25:58;5.20;51.60
2751;DHT22;1383;48.362;10.908;2023-12-20T16:28:25;5.20;51.70
2751;DHT22;1383;48.362;10.908;2023-12-20T16:30:52;5.20;52.00
2751;DHT22;1383;48.362;10.908;2023-12-20T16:33:22;5.20;52.10
2751;DHT22;1383;48.362;10.908;2023-12-20T16:35:49;5.20;52.10